Time;durP1;ratioP1;P1;durP2;ratioP2;P2;SDS_P1;SDS_P2;PMS_P1;PMS_P2;Temp;Humidity;BMP_temperature;BMP_pressure;BME280_temperature;BME280_humidity;BME280_pressure;Samples;Min_cycle;Max_cycle;Signal;HPM_P1;HPM_P2
2023/03/06 00:00:28;;;;;;;7.18;2.88;;;;;;;5.43;60.11;98954.75;5010462;28;20133;-79
2023/03/06 00:02:56;;;;;;;4.30;2.15;;;;;;;5.39;59.86;98945.41;5010426;28;20045;-79
2023/03/06 00:05:22;;;;;;;9.52;2.45;;;;;;;5.34;59.96;98943.00;5010010;28;20109;-80
2023/03/06 00:07:49;;;;;;;7.88;2.85;;;;;;;5.30;59.93;98944.06;5009923;28;20058;-79
2023/03/06 00:10:19;;;;;;;4.57;2.33;;;;;;;5.24;60.15;98940.91;4993171;28;20555;-79
2023/03/06 00:12:46;;;;;;;8.57;2.42;;;;;;;5.19;60.17;98931.53;5013594;28;20125;-80
2023/03/06 00:15:13;;;;;;;5.32;2.33;;;;;;;5.13;60.45;98938.81;5013142;28;20146;-78
2023/03/06 00:17:40;;;;;;;7.95;2.30;;;;;;;5.07;60.47;98932.13;4995774;28;20103;-79
2023/03/06 00:20:09;;;;;;;10.43;2.60;;;;;;;5.02;60.57;98929.75;5013770;28;20054;-79
2023/03/06 00:22:36;;;;;;;4.43;2.00;;;;;;;4.97;60.66;98929.09;5011749;28;20133;-79
2023/03/06 00:25:04;;;;;;;8.13;2.30;;;;;;;4.93;61.02;98927.53;4995207;28;20046;-79
2023/03/06 00:27:31;;;;;;;6.00;2.30;;;;;;;4.90;61.26;98922.50;5020837;28;20053;-79
2023/03/06 00:29:59;;;;;;;5.95;2.22;;;;;;;4.86;61.13;98923.56;5033094;28;20128;-79
2023/03/06 00:32:27;;;;;;;3.85;1.88;;;;;;;4.83;61.36;98924.53;5033497;28;20049;-80
2023/03/06 00:34:54;;;;;;;4.78;2.05;;;;;;;4.80;61.50;98916.84;5032778;28;20046;-79
2023/03/06 00:37:23;;;;;;;6.05;2.17;;;;;;;4.78;61.78;98914.31;5032589;28;20140;-79
2023/03/06 00:39:50;;;;;;;5.95;2.45;;;;;;;4.78;61.77;98916.94;5033022;28;20466;-79
2023/03/06 00:42:18;;;;;;;11.70;2.33;;;;;;;4.76;61.85;98921.38;5032917;28;20156;-81
2023/03/06 00:44:45;;;;;;;6.40;2.33;;;;;;;4.77;62.05;98920.47;5025031;28;20745;-82
2023/03/06 00:47:15;;;;;;;4.38;2.20;;;;;;;4.78;62.00;98913.47;5035062;23;20500;-80
2023/03/06 00:49:45;;;;;;;6.40;2.33;;;;;;;4.78;62.38;98914.31;5023680;28;20100;-80
2023/03/06 00:52:12;;;;;;;12.60;2.22;;;;;;;4.82;62.36;98910.66;5019741;28;20380;-80
2023/03/06 00:54:39;;;;;;;8.25;2.60;;;;;;;4.86;62.50;98916.56;5035928;28;20048;-80
2023/03/06 00:57:06;;;;;;;5.88;2.30;;;;;;;4.89;62.30;98911.22;5035004;28;20061;-80
2023/03/06 00:59:33;;;;;;;9.90;2.75;;;;;;;4.94;62.39;98905.78;5044462;28;20053;-81
2023/03/06 01:02:00;;;;;;;8.13;2.40;;;;;;;4.98;62.34;98906.47;5051962;28;20423;-80
2023/03/06 01:04:26;;;;;;;5.82;2.38;;;;;;;5.00;62.19;98908.09;5051728;28;20053;-80
2023/03/06 01:06:53;;;;;;;6.20;1.92;;;;;;;5.02;62.17;98892.38;5050863;28;20056;-80
2023/03/06 01:09:20;;;;;;;5.55;2.47;;;;;;;5.04;62.33;98893.97;5051454;28;20048;-80
2023/03/06 01:11:46;;;;;;;5.07;2.67;;;;;;;5.05;62.21;98890.44;5051652;28;20053;-80
2023/03/06 01:14:12;;;;;;;8.50;2.97;;;;;;;5.07;62.21;98890.38;5051978;28;20053;-80
2023/03/06 01:16:42;;;;;;;4.95;2.00;;;;;;;5.08;62.33;98890.31;5033387;28;20056;-81
2023/03/06 01:19:08;;;;;;;6.13;2.30;;;;;;;5.08;62.44;98882.47;5051308;28;20128;-80
2023/03/06 01:21:34;;;;;;;4.53;1.90;;;;;;;5.11;62.34;98885.84;5050953;28;20442;-80
2023/03/06 01:24:01;;;;;;;4.80;2.00;;;;;;;5.11;62.33;98888.47;5050773;28;20491;-80
2023/03/06 01:26:27;;;;;;;6.18;2.15;;;;;;;5.11;62.42;98883.25;5051015;28;20063;-80
2023/03/06 01:28:56;;;;;;;9.07;2.45;;;;;;;5.13;62.41;98879.66;5032786;28;20437;-80
2023/03/06 01:31:23;;;;;;;5.50;2.00;;;;;;;5.15;62.48;98869.13;5033525;28;20045;-80
2023/03/06 01:33:50;;;;;;;4.65;2.38;;;;;;;5.16;62.32;98878.66;5051158;28;20053;-80
2023/03/06 01:36:17;;;;;;;9.55;2.70;;;;;;;5.16;62.40;98861.22;5050558;28;20487;-80
2023/03/06 01:38:44;;;;;;;6.13;2.40;;;;;;;5.14;62.16;98857.00;5033077;28;20079;-80
2023/03/06 01:41:14;;;;;;;8.15;2.40;;;;;;;5.11;62.31;98849.31;5051064;28;20045;-80
2023/03/06 01:43:45;;;;;;;6.75;2.10;;;;;;;5.07;62.29;98857.31;5051003;28;20057;-80
2023/03/06 01:46:43;;;;;;;5.68;2.28;;;;;;;5.03;62.76;98842.75;5032872;28;20049;-81
2023/03/06 01:49:13;;;;;;;8.63;2.20;;;;;;;5.00;62.51;98837.66;5014958;28;20057;-80
2023/03/06 01:51:47;;;;;;;7.13;2.10;;;;;;;4.97;62.79;98836.97;5013479;28;20095;-80
2023/03/06 01:54:21;;;;;;;5.18;2.05;;;;;;;4.93;63.20;98836.25;5030853;28;20107;-80
2023/03/06 01:56:51;;;;;;;6.32;2.17;;;;;;;4.91;62.79;98830.28;5030327;28;20077;-80
2023/03/06 01:59:20;;;;;;;4.82;2.33;;;;;;;4.87;62.66;98826.16;5030605;28;20554;-80
2023/03/06 02:01:47;;;;;;;10.43;2.40;;;;;;;4.83;62.53;98830.69;5030831;28;20451;-80
2023/03/06 02:04:14;;;;;;;8.88;2.50;;;;;;;4.78;62.98;98830.03;5013155;28;20191;-81
2023/03/06 02:06:44;;;;;;;4.65;2.22;;;;;;;4.73;62.96;98822.44;5012313;28;20060;-80
2023/03/06 02:09:12;;;;;;;5.68;2.00;;;;;;;4.72;63.07;98825.13;5031102;28;20111;-80
2023/03/06 02:11:42;;;;;;;10.35;3.13;;;;;;;4.67;63.11;98820.13;5012737;28;20088;-80
2023/03/06 02:14:15;;;;;;;4.25;1.73;;;;;;;4.61;63.74;98816.06;5013259;28;20291;-80
2023/03/06 02:16:42;;;;;;;8.23;2.65;;;;;;;4.61;63.18;98808.25;5029593;28;20503;-80
2023/03/06 02:19:48;;;;;;;7.00;2.30;;;;;;;4.56;64.29;98805.84;5012935;28;20053;-80
2023/03/06 02:22:14;;;;;;;6.97;2.60;;;;;;;4.58;63.53;98805.78;4996951;28;20983;-80
2023/03/06 02:25:06;;;;;;;6.55;2.83;;;;;;;4.53;64.22;98805.97;5030301;28;20053;-80
2023/03/06 02:27:33;;;;;;;4.45;2.17;;;;;;;4.53;63.51;98799.94;5029977;28;20045;-80
2023/03/06 02:30:05;;;;;;;4.25;2.30;;;;;;;4.49;64.63;98798.41;5012729;28;20054;-80
2023/03/06 02:32:31;;;;;;;5.15;2.22;;;;;;;4.48;63.56;98797.53;5022701;28;20045;-80
2023/03/06 02:34:58;;;;;;;9.20;2.80;;;;;;;4.46;64.07;98785.50;5029627;28;20110;-80
2023/03/06 02:37:27;;;;;;;5.35;2.10;;;;;;;4.44;63.99;98780.38;5029676;28;20059;-80
2023/03/06 02:40:01;;;;;;;8.30;2.78;;;;;;;4.40;65.24;98784.03;5030207;28;20057;-80
2023/03/06 02:42:28;;;;;;;6.90;2.88;;;;;;;4.41;64.08;98775.31;5022609;28;20438;-80
2023/03/06 02:44:57;;;;;;;4.18;3.00;;;;;;;4.38;64.35;98773.69;5029574;28;20064;-80
2023/03/06 02:47:24;;;;;;;4.45;2.17;;;;;;;4.40;63.95;98779.69;5035563;28;20049;-80
2023/03/06 02:49:50;;;;;;;7.07;2.60;;;;;;;4.41;64.14;98780.53;5049980;28;20061;-80
2023/03/06 02:52:17;;;;;;;2.55;1.70;;;;;;;4.42;64.39;98787.41;5049637;28;20041;-80
2023/03/06 02:54:43;;;;;;;3.92;2.40;;;;;;;4.44;64.12;98788.19;5049522;28;20494;-80
2023/03/06 02:57:10;;;;;;;5.28;2.63;;;;;;;4.49;64.22;98780.16;5031377;28;20053;-80
2023/03/06 02:59:36;;;;;;;4.40;2.30;;;;;;;4.50;64.01;98774.88;5031974;28;20045;-80
2023/03/06 03:02:03;;;;;;;4.10;2.45;;;;;;;4.55;64.10;98775.50;5050001;28;20052;-80
2023/03/06 03:04:29;;;;;;;8.82;2.60;;;;;;;4.58;64.08;98766.69;5049757;28;20052;-80
2023/03/06 03:06:55;;;;;;;4.15;2.50;;;;;;;4.59;63.97;98768.34;5048614;28;20053;-80
2023/03/06 03:09:22;;;;;;;7.70;2.60;;;;;;;4.60;63.76;98764.81;5032066;28;20049;-80
2023/03/06 03:11:48;;;;;;;6.00;2.80;;;;;;;4.58;63.91;98758.84;5049529;28;20087;-81
2023/03/06 03:14:15;;;;;;;7.65;3.00;;;;;;;4.59;63.75;98759.72;5049706;28;20067;-80
2023/03/06 03:16:41;;;;;;;7.60;3.00;;;;;;;4.55;63.64;98757.25;5048929;28;20487;-80
2023/03/06 03:19:08;;;;;;;4.80;3.15;;;;;;;4.55;63.60;98759.84;5032136;28;20358;-81
2023/03/06 03:21:34;;;;;;;6.70;3.03;;;;;;;4.54;63.90;98758.19;5049672;28;20049;-80
2023/03/06 03:24:01;;;;;;;8.18;2.92;;;;;;;4.55;63.93;98759.84;5049371;28;20056;-80
2023/03/06 03:26:27;;;;;;;4.10;2.88;;;;;;;4.54;63.78;98758.19;5049007;28;20519;-80
2023/03/06 03:28:54;;;;;;;6.38;3.50;;;;;;;4.53;63.54;98751.25;5049349;28;20052;-80
2023/03/06 03:31:20;;;;;;;5.43;3.17;;;;;;;4.54;63.97;98750.34;5049691;28;20052;-80
2023/03/06 03:33:47;;;;;;;10.00;2.72;;;;;;;4.53;63.69;98756.47;5049457;28;20059;-80
2023/03/06 03:36:13;;;;;;;6.13;3.20;;;;;;;4.52;63.63;98739.16;5049087;28;20049;-80
2023/03/06 03:38:39;;;;;;;9.88;3.53;;;;;;;4.52;63.72;98749.56;5048918;28;20052;-80
2023/03/06 03:41:06;;;;;;;5.38;3.30;;;;;;;4.48;63.76;98740.22;5049400;28;20098;-80
2023/03/06 03:43:32;;;;;;;9.68;3.95;;;;;;;4.43;63.79;98735.25;5049171;28;20190;-80
2023/03/06 03:45:59;;;;;;;7.40;4.25;;;;;;;4.39;64.24;98730.22;5050641;28;20052;-81
2023/03/06 03:48:25;;;;;;;8.85;4.60;;;;;;;4.35;63.94;98734.75;5020402;28;20144;-80
2023/03/06 03:50:51;;;;;;;5.57;3.65;;;;;;;4.31;64.32;98735.81;5033096;28;20045;-80
2023/03/06 03:53:18;;;;;;;7.03;3.92;;;;;;;4.27;64.20;98732.50;5033088;28;20099;-80
2023/03/06 03:55:48;;;;;;;5.78;3.60;;;;;;;4.24;64.92;98729.22;5015058;28;20427;-79
2023/03/06 03:58:14;;;;;;;7.32;3.90;;;;;;;4.24;64.41;98737.03;5032761;28;20532;-80
2023/03/06 04:00:40;;;;;;;8.20;4.50;;;;;;;4.22;64.49;98737.09;5015696;28;20053;-80
2023/03/06 04:03:07;;;;;;;6.47;3.55;;;;;;;4.22;64.51;98723.25;5032919;28;20095;-80
2023/03/06 04:05:33;;;;;;;7.68;3.80;;;;;;;4.21;64.64;98721.53;5032578;28;20049;-80
2023/03/06 04:08:01;;;;;;;6.05;4.38;;;;;;;4.21;64.69;98727.59;5032646;28;20404;-79
2023/03/06 04:10:28;;;;;;;6.97;4.57;;;;;;;4.22;65.10;98716.25;5032831;28;20053;-80
2023/03/06 04:12:54;;;;;;;7.65;4.10;;;;;;;4.22;64.58;98716.25;5033038;28;20053;-80
2023/03/06 04:15:21;;;;;;;7.95;4.00;;;;;;;4.23;64.95;98711.91;5014947;28;20053;-80
2023/03/06 04:17:47;;;;;;;8.35;4.00;;;;;;;4.22;64.83;98708.44;5032209;28;20450;-80
2023/03/06 04:20:14;;;;;;;7.15;4.65;;;;;;;4.20;64.84;98704.22;5032683;28;20045;-80
2023/03/06 04:22:40;;;;;;;9.88;4.75;;;;;;;4.18;64.64;98712.09;5032722;28;20041;-80
2023/03/06 04:25:07;;;;;;;8.07;4.80;;;;;;;4.16;65.19;98701.75;5032466;28;20053;-80
2023/03/06 04:27:34;;;;;;;10.10;4.45;;;;;;;4.13;64.84;98698.47;5032058;28;20496;-80
2023/03/06 04:30:00;;;;;;;11.05;5.28;;;;;;;4.12;65.08;98696.78;5032565;28;20053;-80
2023/03/06 04:32:29;;;;;;;8.30;4.80;;;;;;;4.12;65.08;98691.56;5007484;28;20491;-80
2023/03/06 04:34:55;;;;;;;6.30;4.18;;;;;;;4.10;65.13;98685.56;5031957;28;20096;-80
2023/03/06 04:37:24;;;;;;;10.38;4.25;;;;;;;4.12;65.32;98688.97;5014232;28;20415;-80
2023/03/06 04:39:50;;;;;;;9.25;4.15;;;;;;;4.12;65.27;98692.41;5032204;28;20060;-80
2023/03/06 04:42:17;;;;;;;7.80;4.28;;;;;;;4.14;65.24;98684.50;5032353;28;20558;-80
2023/03/06 04:44:44;;;;;;;7.90;4.72;;;;;;;4.14;65.42;98687.13;5032146;28;20049;-80
2023/03/06 04:47:11;;;;;;;6.55;4.38;;;;;;;4.14;65.41;98681.91;5036430;28;20419;-80
2023/03/06 04:49:37;;;;;;;8.55;5.18;;;;;;;4.13;65.13;98678.47;5052162;28;20077;-80
2023/03/06 04:52:04;;;;;;;7.97;5.13;;;;;;;4.14;65.46;98676.69;5051922;28;20084;-80
2023/03/06 04:54:31;;;;;;;7.88;5.20;;;;;;;4.13;65.45;98680.22;5052159;28;20049;-80
2023/03/06 04:56:57;;;;;;;7.97;4.55;;;;;;;4.11;65.33;98676.88;5051168;28;20068;-80
2023/03/06 04:59:24;;;;;;;8.63;4.90;;;;;;;4.10;65.50;98669.94;5052224;28;20550;-81
2023/03/06 05:01:50;;;;;;;7.32;4.88;;;;;;;4.08;65.26;98670.06;5051754;28;20060;-80
2023/03/06 05:04:17;;;;;;;12.02;5.35;;;;;;;4.07;65.74;98678.75;5052048;28;20058;-80
2023/03/06 05:06:44;;;;;;;8.57;4.93;;;;;;;4.06;65.67;98669.25;5050810;28;20056;-80
2023/03/06 05:09:11;;;;;;;9.25;5.80;;;;;;;4.04;65.57;98671.94;5034169;28;20053;-81
2023/03/06 05:11:37;;;;;;;8.80;4.93;;;;;;;4.03;65.48;98661.59;5051961;28;20114;-80
2023/03/06 05:14:03;;;;;;;11.18;5.22;;;;;;;4.04;65.58;98658.09;5051703;28;20057;-80
2023/03/06 05:16:30;;;;;;;9.00;5.75;;;;;;;4.00;66.04;98657.38;5051054;28;20068;-80
2023/03/06 05:18:56;;;;;;;8.10;4.53;;;;;;;4.01;65.77;98655.63;5051048;28;20064;-80
2023/03/06 05:21:23;;;;;;;9.45;4.43;;;;;;;4.00;66.10;98657.38;5051475;28;20126;-80
2023/03/06 05:23:49;;;;;;;9.90;5.22;;;;;;;4.01;66.12;98658.22;5051595;28;20091;-80
2023/03/06 05:26:16;;;;;;;10.70;5.45;;;;;;;4.01;66.05;98660.84;5050984;28;20053;-79
2023/03/06 05:28:42;;;;;;;7.00;4.90;;;;;;;4.00;66.21;98651.34;5050985;28;20045;-80
2023/03/06 05:31:08;;;;;;;8.48;5.00;;;;;;;4.00;65.97;98657.38;5051276;28;20048;-79
2023/03/06 05:33:35;;;;;;;9.13;5.00;;;;;;;4.00;66.14;98652.16;5033566;28;20292;-80
2023/03/06 05:36:02;;;;;;;7.90;4.90;;;;;;;4.02;66.13;98652.94;5050751;28;20064;-79
2023/03/06 05:38:28;;;;;;;6.90;4.82;;;;;;;4.03;66.19;98643.34;5033176;28;20428;-80
2023/03/06 05:40:55;;;;;;;8.35;5.22;;;;;;;4.02;66.21;98645.13;5051029;28;20111;-80
2023/03/06 05:43:21;;;;;;;10.43;5.32;;;;;;;4.03;66.28;98644.22;5051136;28;20107;-79
2023/03/06 05:45:49;;;;;;;6.90;4.47;;;;;;;4.03;66.67;98639.00;5050629;28;20146;-80
2023/03/06 05:48:15;;;;;;;8.55;5.40;;;;;;;4.05;66.52;98638.94;5050229;28;20053;-80
2023/03/06 05:50:42;;;;;;;9.55;5.40;;;;;;;4.05;66.19;98638.94;5051190;28;20143;-80
2023/03/06 05:53:09;;;;;;;9.20;5.65;;;;;;;4.04;66.66;98638.09;5050865;28;20048;-80
2023/03/06 05:55:35;;;;;;;9.50;5.35;;;;;;;4.04;66.27;98632.06;5050732;28;20052;-80
2023/03/06 05:58:02;;;;;;;7.88;4.90;;;;;;;4.04;66.25;98632.88;5050224;28;20060;-80
2023/03/06 06:00:28;;;;;;;8.00;5.47;;;;;;;4.05;66.34;98636.34;5050819;28;20056;-80
2023/03/06 06:02:55;;;;;;;9.15;5.10;;;;;;;4.04;66.30;98638.09;5050230;28;20049;-80
2023/03/06 06:05:21;;;;;;;6.28;5.18;;;;;;;4.05;66.41;98636.34;5050228;28;20095;-80
2023/03/06 06:07:48;;;;;;;9.93;5.38;;;;;;;4.04;66.58;98638.09;5049790;28;20461;-80
2023/03/06 06:10:14;;;;;;;7.32;5.25;;;;;;;4.05;66.76;98636.34;5049310;28;20064;-81
2023/03/06 06:12:41;;;;;;;13.07;6.35;;;;;;;4.04;66.49;98634.66;5050524;28;20076;-80
2023/03/06 06:15:07;;;;;;;6.78;5.38;;;;;;;4.03;66.59;98628.59;5050013;28;20057;-80
2023/03/06 06:17:34;;;;;;;9.85;5.25;;;;;;;4.04;66.62;98637.25;5049283;28;20063;-81
2023/03/06 06:20:00;;;;;;;10.27;6.13;;;;;;;4.04;66.84;98635.47;5049299;28;20709;-80
2023/03/06 06:22:27;;;;;;;6.88;5.63;;;;;;;4.06;66.85;98637.16;5023834;28;20342;-80
2023/03/06 06:24:54;;;;;;;11.10;5.50;;;;;;;4.07;66.74;98637.09;5049306;28;20049;-81
2023/03/06 06:27:21;;;;;;;9.32;6.07;;;;;;;4.08;66.68;98638.78;5048965;28;20063;-80
2023/03/06 06:29:50;;;;;;;9.18;6.40;;;;;;;4.09;67.01;98639.63;5049341;28;20473;-80
2023/03/06 06:32:17;;;;;;;10.63;6.35;;;;;;;4.10;66.81;98634.34;5049836;28;20107;-80
2023/03/06 06:34:43;;;;;;;8.65;6.68;;;;;;;4.11;66.89;98643.84;5049679;28;20136;-80
2023/03/06 06:37:09;;;;;;;8.13;5.97;;;;;;;4.08;66.90;98641.41;5031826;28;20056;-81
2023/03/06 06:39:36;;;;;;;10.73;6.40;;;;;;;4.07;66.83;98633.66;5050082;28;20062;-80
2023/03/06 06:42:02;;;;;;;9.60;7.38;;;;;;;4.05;66.95;98633.72;5050031;28;20049;-80
2023/03/06 06:44:49;;;;;;;11.73;6.65;;;;;;;4.05;66.71;98633.72;5034864;28;20601;-80
2023/03/06 06:49:53;;;;;;;10.68;7.13;;;;;;;4.02;67.73;98637.31;5028922;23;20060;-80
2023/03/06 06:52:20;;;;;;;13.38;6.65;;;;;;;4.01;67.33;98638.22;5030636;28;20053;-80
2023/03/06 06:54:47;;;;;;;7.88;6.35;;;;;;;4.02;68.17;98641.69;5030188;28;20140;-81
2023/03/06 06:57:14;;;;;;;9.35;6.90;;;;;;;4.01;68.19;98634.78;5030304;28;20046;-79
2023/03/06 06:59:41;;;;;;;11.65;7.85;;;;;;;4.02;68.01;98633.88;5012801;28;20107;-79
2023/03/06 07:02:11;;;;;;;9.82;7.35;;;;;;;4.02;68.55;98637.31;5030558;28;20136;-81
2023/03/06 07:04:38;;;;;;;9.93;7.32;;;;;;;4.03;68.53;98633.81;5030462;28;20068;-80
2023/03/06 07:07:14;;;;;;;11.07;7.93;;;;;;;4.06;68.77;98632.81;5029841;28;20049;-83
2023/03/06 07:09:41;;;;;;;16.45;8.05;;;;;;;4.08;68.96;98640.53;5030030;28;20100;-83
2023/03/06 07:12:08;;;;;;;14.77;8.48;;;;;;;4.09;69.07;98639.63;5030120;28;20045;-84
2023/03/06 07:14:34;;;;;;;11.80;8.73;;;;;;;4.11;68.90;98632.59;5029997;28;20053;-83
2023/03/06 07:17:01;;;;;;;12.75;8.32;;;;;;;4.14;69.04;98635.03;5029634;28;20055;-83
2023/03/06 07:19:28;;;;;;;11.15;8.48;;;;;;;4.15;69.28;98634.13;5029974;28;20491;-83
2023/03/06 07:21:54;;;;;;;11.90;8.65;;;;;;;4.19;69.28;98640.03;5033777;28;20478;-83
2023/03/06 07:24:21;;;;;;;12.57;8.65;;;;;;;4.19;69.34;98633.06;5034272;28;20103;-83
2023/03/06 07:26:48;;;;;;;11.98;9.48;;;;;;;4.23;69.59;98639.78;5033797;28;20140;-83
2023/03/06 07:29:14;;;;;;;14.00;9.52;;;;;;;4.25;69.65;98643.16;5034526;28;20049;-83
2023/03/06 07:31:41;;;;;;;11.45;9.00;;;;;;;4.27;69.57;98638.72;5034403;28;20093;-83
2023/03/06 07:34:11;;;;;;;14.52;10.20;;;;;;;4.28;69.56;98645.63;5034124;28;20517;-83
2023/03/06 07:36:39;;;;;;;17.00;9.52;;;;;;;4.31;69.40;98639.44;5033387;28;20103;-83
2023/03/06 07:39:09;;;;;;;13.05;9.73;;;;;;;4.30;69.40;98635.97;5033871;28;20045;-83
2023/03/06 07:41:35;;;;;;;12.73;9.00;;;;;;;4.33;69.58;98644.56;5034246;28;20163;-83
2023/03/06 07:44:02;;;;;;;11.52;9.32;;;;;;;4.35;69.41;98642.72;5033998;28;20494;-83
2023/03/06 07:46:29;;;;;;;12.13;9.55;;;;;;;4.36;69.62;98647.84;5033335;28;20542;-83
2023/03/06 07:48:57;;;;;;;13.40;8.38;;;;;;;4.38;69.69;98650.38;5033778;28;20100;-83
2023/03/06 07:51:23;;;;;;;13.95;9.40;;;;;;;4.39;69.70;98652.94;5016197;28;20565;-83
2023/03/06 07:53:50;;;;;;;11.38;8.73;;;;;;;4.42;69.84;98651.94;5033775;28;20081;-83
2023/03/06 07:56:16;;;;;;;11.63;8.70;;;;;;;4.44;70.27;98647.47;5016007;28;20049;-83
2023/03/06 07:58:44;;;;;;;13.13;8.55;;;;;;;4.47;70.24;98660.34;5033558;28;20053;-83
2023/03/06 08:01:19;;;;;;;11.90;9.00;;;;;;;4.47;70.03;98660.34;5033787;28;20083;-83
2023/03/06 08:03:48;;;;;;;15.52;9.38;;;;;;;4.51;70.17;98667.09;5033749;28;20056;-83
2023/03/06 08:06:26;;;;;;;17.98;9.40;;;;;;;4.50;69.98;98669.78;5033194;28;20467;-83
2023/03/06 08:08:54;;;;;;;13.95;8.02;;;;;;;4.54;70.16;98666.09;5033152;28;20092;-83
2023/03/06 08:11:23;;;;;;;23.98;9.63;;;;;;;4.54;70.16;98677.38;5033816;28;20115;-83
2023/03/06 08:13:51;;;;;;;10.45;8.48;;;;;;;4.55;70.32;98673.84;5033334;28;20438;-83
2023/03/06 08:16:24;;;;;;;14.50;8.48;;;;;;;4.54;70.28;98672.16;5033182;28;20450;-83
2023/03/06 08:18:51;;;;;;;11.43;8.00;;;;;;;4.55;70.68;98673.84;5033107;28;20053;-83
2023/03/06 08:21:22;;;;;;;9.82;7.05;;;;;;;4.55;70.73;98673.84;5033206;28;20662;-83
2023/03/06 08:23:50;;;;;;;10.13;7.10;;;;;;;4.58;70.98;98678.06;5033642;28;20081;-83
2023/03/06 08:26:23;;;;;;;10.82;6.90;;;;;;;4.61;70.84;98674.47;5032760;28;20077;-83
2023/03/06 08:28:51;;;;;;;11.05;7.65;;;;;;;4.64;71.11;98680.34;5032987;28;20586;-83
2023/03/06 08:31:34;;;;;;;12.07;7.85;;;;;;;4.64;70.66;98680.34;5015046;28;20095;-83
2023/03/06 08:34:08;;;;;;;9.05;6.10;;;;;;;4.71;71.18;98683.50;5033262;28;20096;-83
2023/03/06 08:36:34;;;;;;;9.30;7.40;;;;;;;4.76;71.29;98684.13;5032548;28;20108;-83
2023/03/06 08:39:02;;;;;;;9.02;6.40;;;;;;;4.80;71.26;98685.66;5033106;28;20506;-83
2023/03/06 08:41:29;;;;;;;8.77;6.40;;;;;;;4.86;71.73;98683.66;5032958;28;20413;-83
2023/03/06 08:43:55;;;;;;;9.50;6.85;;;;;;;4.91;71.50;98685.13;5015256;28;20049;-84
2023/03/06 08:46:25;;;;;;;10.48;6.72;;;;;;;4.96;71.35;98684.88;5032598;28;20057;-83
2023/03/06 08:48:52;;;;;;;8.98;6.05;;;;;;;5.02;71.66;98687.19;5014926;28;20081;-83
2023/03/06 08:51:21;;;;;;;9.27;5.65;;;;;;;5.07;71.28;98686.91;5015353;28;20136;-84
2023/03/06 08:53:49;;;;;;;6.97;5.30;;;;;;;5.12;71.45;98692.75;5032664;28;20092;-83
2023/03/06 08:56:18;;;;;;;7.97;5.78;;;;;;;5.18;71.58;98686.38;5032230;28;20045;-83
2023/03/06 08:58:45;;;;;;;7.45;5.38;;;;;;;5.21;71.46;98692.25;5032325;28;20049;-83
2023/03/06 09:01:27;;;;;;;8.73;5.15;;;;;;;5.24;70.72;98688.66;5032977;28;20530;-83
2023/03/06 09:03:56;;;;;;;6.38;4.70;;;;;;;5.30;71.25;98693.56;5032650;28;20056;-83
2023/03/06 09:06:22;;;;;;;7.32;4.50;;;;;;;5.36;71.26;98695.00;5032192;28;20086;-83
2023/03/06 09:08:51;;;;;;;6.82;4.70;;;;;;;5.40;71.43;98695.69;5032078;28;20512;-83
2023/03/06 09:11:20;;;;;;;6.82;4.18;;;;;;;5.46;71.49;98696.19;5032557;28;20053;-83
2023/03/06 09:13:47;;;;;;;6.57;4.38;;;;;;;5.54;71.74;98697.56;5032236;28;20494;-83
2023/03/06 09:16:13;;;;;;;5.40;4.03;;;;;;;5.60;71.75;98689.38;5014569;28;20064;-83
2023/03/06 09:18:40;;;;;;;4.43;3.65;;;;;;;5.66;71.46;98693.44;5031966;28;20049;-83
2023/03/06 09:21:08;;;;;;;4.65;3.78;;;;;;;5.71;71.48;98691.41;5032102;28;20515;-84
2023/03/06 09:23:36;;;;;;;6.75;3.97;;;;;;;5.79;71.41;98683.19;5032428;28;20140;-83
2023/03/06 09:26:02;;;;;;;4.03;3.50;;;;;;;5.84;71.51;98689.81;5031989;28;20057;-83
2023/03/06 09:28:29;;;;;;;5.30;3.47;;;;;;;5.91;71.38;98689.50;5032007;28;20418;-83
2023/03/06 09:30:56;;;;;;;6.47;3.83;;;;;;;5.95;71.49;98691.84;5032113;28;20406;-83
2023/03/06 09:33:23;;;;;;;3.95;3.25;;;;;;;6.01;71.82;98695.91;5031822;28;20072;-83
2023/03/06 09:35:53;;;;;;;5.43;4.35;;;;;;;6.08;71.46;98683.38;5031593;28;20099;-83
2023/03/06 09:38:22;;;;;;;4.03;3.63;;;;;;;6.19;71.62;98688.00;5031758;28;20061;-83
2023/03/06 09:41:04;;;;;;;4.28;3.45;;;;;;;6.25;70.72;98695.50;5032213;28;20062;-83
2023/03/06 09:43:36;;;;;;;4.63;3.60;;;;;;;6.37;71.46;98693.94;5013339;28;20046;-83
2023/03/06 09:46:22;;;;;;;5.00;2.95;;;;;;;6.47;70.81;98702.13;5031484;28;20077;-83
2023/03/06 09:49:17;;;;;;;3.05;2.58;;;;;;;6.59;70.62;98698.81;5031315;28;20132;-83
2023/03/06 09:52:09;;;;;;;3.08;2.78;;;;;;;6.73;70.35;98700.59;5031906;28;20081;-83
2023/03/06 09:54:43;;;;;;;2.60;2.35;;;;;;;6.88;71.11;98691.00;5031414;28;20045;-83
2023/03/06 09:57:21;;;;;;;2.83;2.55;;;;;;;7.00;70.61;98694.66;5031203;28;20041;-83
2023/03/06 09:59:52;;;;;;;3.63;2.60;;;;;;;7.15;70.93;98697.31;5031512;28;20132;-83
2023/03/06 10:02:45;;;;;;;2.58;2.33;;;;;;;7.25;69.06;98697.63;5031785;28;20076;-83
2023/03/06 10:05:22;;;;;;;3.00;2.40;;;;;;;7.38;69.25;98697.69;5031355;28;20049;-84
2023/03/06 10:08:24;;;;;;;3.25;2.28;;;;;;;7.48;67.61;98698.81;5013671;28;20053;-83
2023/03/06 10:11:01;;;;;;;2.22;2.03;;;;;;;7.60;68.06;98697.25;4989990;28;20136;-83
2023/03/06 10:13:47;;;;;;;2.20;1.85;;;;;;;7.73;70.07;98699.09;5013730;28;20064;-83
2023/03/06 10:16:24;;;;;;;2.63;2.20;;;;;;;7.84;68.90;98707.09;5030787;28;20426;-84
2023/03/06 10:18:51;;;;;;;3.25;2.17;;;;;;;7.98;69.36;98703.63;5030987;28;20445;-83
2023/03/06 10:21:43;;;;;;;2.33;2.00;;;;;;;8.05;67.04;98696.22;5031398;28;20057;-83
2023/03/06 10:24:26;;;;;;;4.68;2.65;;;;;;;8.18;67.14;98702.34;5031425;28;20107;-84
2023/03/06 10:27:11;;;;;;;3.22;2.42;;;;;;;8.30;68.16;98697.28;5030424;28;20119;-83
2023/03/06 10:29:46;;;;;;;2.83;2.15;;;;;;;8.35;67.33;98701.25;5031141;28;20421;-84
2023/03/06 10:32:32;;;;;;;3.60;2.55;;;;;;;8.38;65.17;98702.00;5031611;28;20053;-83
2023/03/06 10:35:21;;;;;;;3.53;2.25;;;;;;;8.42;65.69;98704.34;5030814;28;20123;-83
2023/03/06 10:37:48;;;;;;;3.20;2.00;;;;;;;8.47;67.09;98698.78;5031019;28;20112;-83
2023/03/06 10:40:20;;;;;;;2.28;2.05;;;;;;;8.52;66.20;98704.56;5013156;28;20505;-83
2023/03/06 10:42:47;;;;;;;4.32;2.22;;;;;;;8.63;66.54;98705.69;5030969;28;20595;-83
2023/03/06 10:45:17;;;;;;;4.57;2.28;;;;;;;8.71;66.51;98703.41;5030630;28;20053;-83
2023/03/06 10:47:44;;;;;;;2.35;2.10;;;;;;;8.79;65.94;98702.88;5013115;28;20049;-82
2023/03/06 10:50:27;;;;;;;2.22;1.88;;;;;;;8.83;62.96;98712.22;5013122;28;20475;-83
2023/03/06 10:53:04;;;;;;;2.00;1.80;;;;;;;8.88;62.58;98701.41;5030918;28;20590;-83
2023/03/06 10:55:33;;;;;;;2.70;2.30;;;;;;;8.94;64.92;98708.88;5030327;28;20054;-83
2023/03/06 10:58:24;;;;;;;3.28;2.40;;;;;;;8.97;63.38;98706.88;5030547;28;20049;-83
2023/03/06 11:01:19;;;;;;;3.22;2.38;;;;;;;9.08;63.40;98710.59;5033592;28;20053;-83
2023/03/06 11:03:46;;;;;;;3.53;2.30;;;;;;;9.23;65.26;98714.78;5030652;28;20426;-83
2023/03/06 11:06:29;;;;;;;3.55;1.88;;;;;;;9.35;64.29;98707.00;5030291;28;20054;-83
2023/03/06 11:09:14;;;;;;;2.58;1.80;;;;;;;9.51;62.05;98710.25;5030345;28;20119;-83
2023/03/06 11:11:40;;;;;;;3.35;1.70;;;;;;;9.71;64.32;98710.63;5030448;28;20085;-83
2023/03/06 11:14:19;;;;;;;4.20;1.70;;;;;;;9.84;61.79;98709.78;5030569;28;20045;-83
2023/03/06 11:16:51;;;;;;;2.13;1.77;;;;;;;9.96;63.27;98706.28;5029548;28;20049;-83
2023/03/06 11:19:26;;;;;;;3.38;1.63;;;;;;;10.07;61.55;98715.16;5030592;28;20552;-83
2023/03/06 11:22:00;;;;;;;1.85;1.63;;;;;;;10.14;59.59;98711.16;5012857;28;20065;-83
2023/03/06 11:24:35;;;;;;;2.47;1.60;;;;;;;10.19;58.81;98705.56;5030548;28;20469;-83
2023/03/06 11:27:21;;;;;;;1.80;1.50;;;;;;;10.20;57.92;98712.50;5029768;28;20089;-83
2023/03/06 11:29:49;;;;;;;2.88;1.40;;;;;;;10.27;61.01;98708.47;5030615;28;20088;-84
2023/03/06 11:32:22;;;;;;;2.40;1.40;;;;;;;10.40;63.23;98703.97;5030344;28;20057;-83
2023/03/06 11:35:27;;;;;;;2.72;1.20;;;;;;;10.66;60.31;98698.63;5030269;28;20068;-83
2023/03/06 11:38:05;;;;;;;2.03;1.15;;;;;;;11.22;66.18;98704.16;5011928;28;20552;-83
2023/03/06 11:40:54;;;;;;;2.05;1.35;;;;;;;11.96;63.08;98704.63;5012890;28;20050;-81
2023/03/06 11:43:34;;;;;;;1.50;1.40;;;;;;;12.84;64.64;98701.09;5013148;28;20063;-81
2023/03/06 11:46:14;;;;;;;1.00;0.90;;;;;;;13.67;61.78;98697.66;5030299;28;20072;-81
2023/03/06 11:48:52;;;;;;;2.35;1.00;;;;;;;14.30;57.31;98690.41;5029926;28;20053;-81
2023/03/06 11:51:25;;;;;;;1.52;0.70;;;;;;;14.59;53.22;98689.59;5012834;28;20053;-81
2023/03/06 11:53:53;;;;;;;0.82;0.70;;;;;;;14.75;55.82;98685.53;5030130;28;20502;-81